Holly, Michigan
Current Conditions -  °F | °C
As of 7:53 AM on Wednesday 22 Oct 2014 (Local Time) from KFNT Reporting Station
Overcast Overcast  
Wind Chill: 39°   Ceiling: 1600
Heat Index: 45°   Visibility: 10mi
Dew Point: 37°   Wind: 12mph
Humidity: 74%   Direction: 20°NNE
Pressure: 30.32"   Gusts: NA
Location:  42.79°N, 83.63°W
Report Text: KFNT 221153Z 02010KT 10SM OVC016 07/03 A3032 RMK AO2 SLP273 70001 T00720028 10072 20056 52014
Loading
Personal Weather Stations






























Interactive Weather Map New forecast layout! Learn more

10-Day Weather Forecast

Advertisements
Track Severe Weather on mobile